Time;durP1;ratioP1;P1;durP2;ratioP2;P2;SDS_P1;SDS_P2;PMS_P1;PMS_P2;Temp;Humidity;BMP_temperature;BMP_pressure;BME280_temperature;BME280_humidity;BME280_pressure;Samples;Min_cycle;Max_cycle;Signal;HPM_P1;HPM_P2
2021/05/22 00:00:48;;;;;;;1308.60;44.38;;;;;;;8.28;94.73;92058.25;4967632;28;20050;-76
2021/05/22 00:03:13;;;;;;;1190.80;40.72;;;;;;;8.38;94.37;92057.34;4945993;29;20049;-76
2021/05/22 00:05:39;;;;;;;580.65;21.10;;;;;;;8.26;94.73;92049.16;4948319;28;20502;-77
2021/05/22 00:08:06;;;;;;;1055.28;32.08;;;;;;;8.25;94.97;92037.97;4932097;29;20031;-76
2021/05/22 00:10:31;;;;;;;351.67;13.70;;;;;;;8.28;95.05;92032.16;4956170;28;20085;-75
2021/05/22 00:12:57;;;;;;;78.30;5.57;;;;;;;8.29;94.32;92022.53;4954703;28;20166;-76
2021/05/22 00:15:23;;;;;;;676.40;19.30;;;;;;;8.25;94.60;92022.31;4966555;28;20082;-76
2021/05/22 00:17:48;;;;;;;258.52;11.00;;;;;;;8.30;95.26;92029.28;4957714;28;20078;-77
2021/05/22 00:20:15;;;;;;;820.67;26.33;;;;;;;8.46;94.73;92027.25;4958101;28;20058;-77
2021/05/22 00:22:41;;;;;;;315.83;10.43;;;;;;;8.39;94.35;92016.38;4939043;28;20049;-76
2021/05/22 00:25:09;;;;;;;1318.75;44.42;;;;;;;8.49;94.04;92016.28;4951810;28;20046;-74
2021/05/22 00:27:35;;;;;;;1393.05;40.28;;;;;;;8.41;94.08;92025.50;4934803;29;20130;-76
2021/05/22 00:30:01;;;;;;;912.78;30.63;;;;;;;8.43;93.97;92038.28;4938227;29;20118;-77
2021/05/22 00:32:26;;;;;;;737.45;24.85;;;;;;;8.50;94.11;92029.03;4957001;28;20047;-77
2021/05/22 00:34:52;;;;;;;710.45;23.23;;;;;;;8.37;94.62;92014.06;4948160;29;20422;-75
2021/05/22 00:37:18;;;;;;;1203.80;36.72;;;;;;;8.42;94.92;92021.84;4970604;28;20046;-77
2021/05/22 00:39:43;;;;;;;805.15;24.58;;;;;;;8.45;94.98;92030.94;4966752;28;20053;-76
2021/05/22 00:42:09;;;;;;;1354.28;40.60;;;;;;;8.32;95.11;92027.19;4958986;28;20066;-75
2021/05/22 00:44:35;;;;;;;125.13;6.88;;;;;;;8.36;95.06;92017.72;4966091;28;20043;-77
2021/05/22 00:47:02;;;;;;;974.72;37.80;;;;;;;8.43;94.76;92015.56;4961424;28;20064;-76
2021/05/22 00:49:28;;;;;;;1011.88;31.85;;;;;;;8.40;95.05;92013.53;4989653;28;20086;-76
2021/05/22 00:51:54;;;;;;;1200.80;36.75;;;;;;;8.35;95.23;92010.94;4978571;28;20054;-76
2021/05/22 00:54:20;;;;;;;409.00;14.68;;;;;;;8.40;95.33;92023.13;4973771;28;20461;-76
2021/05/22 00:56:47;;;;;;;574.45;20.15;;;;;;;8.53;94.10;92014.63;4973555;28;20050;-76
2021/05/22 00:59:15;;;;;;;574.88;20.65;;;;;;;8.33;94.86;92020.88;4977036;28;20602;-76
2021/05/22 01:01:42;;;;;;;656.05;22.83;;;;;;;8.36;94.63;92030.78;4991310;28;20042;-76
2021/05/22 01:04:09;;;;;;;839.97;24.80;;;;;;;8.34;95.02;92025.06;4991928;28;20453;-77
2021/05/22 01:06:35;;;;;;;647.10;26.45;;;;;;;8.30;95.22;92034.50;4980046;28;20398;-75
2021/05/22 01:09:08;;;;;;;13.52;3.80;;;;;;;8.37;94.95;92045.34;4960981;28;20047;-77
2021/05/22 01:11:40;;;;;;;5.93;2.90;;;;;;;8.40;93.39;92054.44;4986043;28;20512;-72
2021/05/22 01:14:12;;;;;;;3.93;2.47;;;;;;;8.40;93.22;92059.66;4973392;28;20106;-77
2021/05/22 01:16:40;;;;;;;3.60;2.25;;;;;;;8.43;92.45;92059.91;4986314;28;20042;-77
2021/05/22 01:19:07;;;;;;;2.72;1.60;;;;;;;8.43;91.29;92064.34;4981809;28;20397;-77
2021/05/22 01:21:38;;;;;;;2.38;1.40;;;;;;;8.45;90.80;92063.00;4956092;28;20046;-74
2021/05/22 01:24:09;;;;;;;3.08;1.80;;;;;;;8.48;92.45;92057.22;4984489;28;20042;-77
2021/05/22 01:26:35;;;;;;;1.88;1.10;;;;;;;8.56;91.35;92063.66;4965961;28;20054;-77
2021/05/22 01:29:02;;;;;;;4.22;1.30;;;;;;;8.51;91.43;92051.47;4974004;28;20158;-77
2021/05/22 01:31:28;;;;;;;1.70;1.20;;;;;;;8.49;91.67;92047.59;4973931;28;20030;-77
2021/05/22 01:33:54;;;;;;;1.50;1.10;;;;;;;8.53;91.87;92054.56;4968807;28;20058;-77
2021/05/22 01:36:20;;;;;;;2.83;1.33;;;;;;;8.50;91.89;92062.94;4973529;28;20405;-75
2021/05/22 01:38:46;;;;;;;2.45;1.35;;;;;;;8.50;91.84;92073.38;4962364;28;20046;-76
2021/05/22 01:41:12;;;;;;;4.35;1.45;;;;;;;8.54;92.82;92081.41;4972019;28;20111;-74
2021/05/22 01:43:42;;;;;;;2.35;1.40;;;;;;;8.54;92.66;92084.03;4993248;28;20693;-76
2021/05/22 01:46:09;;;;;;;2.15;1.30;;;;;;;8.55;92.72;92078.50;4981854;28;20047;-77
2021/05/22 01:48:37;;;;;;;2.45;1.33;;;;;;;8.59;92.86;92088.41;4987720;28;20110;-76
2021/05/22 01:51:08;;;;;;;2.75;1.38;;;;;;;8.65;91.87;92076.84;4962818;28;20414;-76
2021/05/22 01:53:54;;;;;;;399.35;9.82;;;;;;;8.57;93.04;92093.88;4964886;28;20117;-76
2021/05/22 01:56:21;;;;;;;8.35;1.52;;;;;;;8.51;93.14;92106.25;4972026;28;20480;-77
2021/05/22 01:58:47;;;;;;;3.03;1.50;;;;;;;8.52;93.07;92115.59;4978464;28;20123;-77
2021/05/22 02:01:13;;;;;;;5.68;1.50;;;;;;;8.48;92.66;92101.56;4984248;28;20071;-76
2021/05/22 02:03:46;;;;;;;259.63;8.90;;;;;;;8.37;92.90;92094.91;4954928;28;20070;-76
2021/05/22 02:06:22;;;;;;;367.35;10.63;;;;;;;8.26;93.80;92093.50;4972717;28;20046;-76
2021/05/22 02:08:52;;;;;;;3.10;1.70;;;;;;;8.26;94.77;92106.53;4984281;28;20046;-77
2021/05/22 02:11:19;;;;;;;2.30;1.50;;;;;;;8.26;94.45;92101.31;4972720;28;20034;-76
2021/05/22 02:13:46;;;;;;;1.55;1.10;;;;;;;8.29;94.31;92113.81;4991304;28;20065;-75
2021/05/22 02:16:16;;;;;;;1.00;0.80;;;;;;;8.30;93.26;92117.94;4958815;28;20047;-76
2021/05/22 02:18:42;;;;;;;0.47;0.47;;;;;;;8.31;90.98;92115.06;4974569;28;20650;-75
2021/05/22 02:21:09;;;;;;;0.93;0.38;;;;;;;8.33;84.48;92122.59;4970964;28;20035;-75
2021/05/22 02:23:44;;;;;;;0.30;0.30;;;;;;;8.32;84.37;92129.66;4969095;28;20046;-75
2021/05/22 02:26:10;;;;;;;0.40;0.40;;;;;;;8.30;85.79;92138.81;4963057;28;20041;-75
2021/05/22 02:28:40;;;;;;;0.38;0.32;;;;;;;8.29;83.58;92142.50;4970078;28;20537;-76
2021/05/22 02:31:08;;;;;;;0.40;0.40;;;;;;;8.27;84.04;92144.59;4955933;28;20047;-73
2021/05/22 02:33:34;;;;;;;0.40;0.40;;;;;;;8.22;82.96;92142.03;4970840;28;20573;-75
2021/05/22 02:36:00;;;;;;;0.40;0.40;;;;;;;8.18;83.75;92143.66;4974966;28;20101;-75
2021/05/22 02:38:35;;;;;;;0.50;0.50;;;;;;;8.12;84.41;92145.56;4974006;28;20109;-75
2021/05/22 02:41:05;;;;;;;0.30;0.30;;;;;;;8.08;82.88;92142.75;4974310;28;20051;-75
2021/05/22 02:43:32;;;;;;;0.88;0.43;;;;;;;8.05;83.64;92148.50;4975264;28;20070;-76
2021/05/22 02:45:58;;;;;;;1.38;0.40;;;;;;;8.01;84.31;92147.50;4989434;28;20064;-76
2021/05/22 02:48:25;;;;;;;0.30;0.30;;;;;;;7.99;84.96;92152.19;4976643;28;20109;-75
2021/05/22 02:50:51;;;;;;;0.30;0.30;;;;;;;7.96;85.13;92165.81;4978888;28;20045;-76
2021/05/22 02:53:23;;;;;;;0.40;0.40;;;;;;;7.95;83.65;92158.25;4974246;28;20049;-75
2021/05/22 02:55:49;;;;;;;0.20;0.20;;;;;;;7.96;82.91;92170.25;4974571;28;20465;-75
2021/05/22 02:58:17;;;;;;;0.32;0.32;;;;;;;7.93;83.57;92168.97;4974673;28;20043;-75
2021/05/22 03:00:44;;;;;;;0.22;0.22;;;;;;;7.91;84.24;92163.25;4992047;28;20042;-76
2021/05/22 03:03:10;;;;;;;0.77;0.40;;;;;;;7.88;84.79;92164.59;4957877;28;20563;-76
2021/05/22 03:05:36;;;;;;;0.38;0.38;;;;;;;7.87;85.94;92159.66;4975194;28;20046;-75
2021/05/22 03:08:02;;;;;;;0.32;0.32;;;;;;;7.86;87.42;92155.50;4987128;28;20038;-75
2021/05/22 03:10:31;;;;;;;0.43;0.40;;;;;;;7.84;87.03;92158.38;4958911;28;20067;-76
2021/05/22 03:12:57;;;;;;;0.50;0.50;;;;;;;7.82;86.66;92155.25;4975842;28;20416;-74
2021/05/22 03:15:22;;;;;;;0.40;0.40;;;;;;;7.89;82.23;92147.13;4958096;28;20122;-75
2021/05/22 03:17:48;;;;;;;0.40;0.40;;;;;;;7.76;83.35;92148.53;4983528;28;20484;-75
2021/05/22 03:20:14;;;;;;;0.28;0.28;;;;;;;7.76;83.14;92142.56;4967309;28;20412;-75
2021/05/22 03:22:41;;;;;;;0.25;0.25;;;;;;;7.75;83.04;92154.06;4986024;28;20046;-75
2021/05/22 03:25:08;;;;;;;0.52;0.40;;;;;;;7.66;84.07;92139.00;4996397;28;20077;-76
2021/05/22 03:27:35;;;;;;;0.30;0.30;;;;;;;7.67;82.33;92143.16;4967018;28;20434;-75
2021/05/22 03:30:01;;;;;;;0.22;0.22;;;;;;;7.62;82.16;92145.03;4966312;28;20047;-74
2021/05/22 03:32:27;;;;;;;1.02;0.40;;;;;;;7.62;82.81;92150.25;4977720;28;20061;-76
2021/05/22 03:34:52;;;;;;;0.30;0.30;;;;;;;7.57;84.10;92140.66;4976770;28;20043;-75
2021/05/22 03:37:18;;;;;;;0.98;0.47;;;;;;;7.56;83.71;92136.50;4974311;28;20043;-77
2021/05/22 03:39:44;;;;;;;0.20;0.20;;;;;;;7.57;83.86;92117.22;4962346;28;20106;-75
2021/05/22 03:42:09;;;;;;;0.28;0.28;;;;;;;7.57;82.98;92100.81;4977911;28;20061;-76
2021/05/22 03:44:35;;;;;;;1.30;0.35;;;;;;;7.55;82.89;92082.84;4960661;28;20386;-76
2021/05/22 03:47:01;;;;;;;0.30;0.30;;;;;;;7.56;82.26;92083.63;4938565;28;20174;-76
2021/05/22 03:49:28;;;;;;;0.30;0.30;;;;;;;7.57;82.25;92072.94;4989689;28;20105;-76
2021/05/22 03:51:54;;;;;;;0.30;0.30;;;;;;;7.57;83.01;92062.53;4953207;28;20062;-76
2021/05/22 03:54:20;;;;;;;0.20;0.20;;;;;;;7.57;82.40;92057.31;4952141;28;20761;-77
2021/05/22 03:56:46;;;;;;;0.40;0.40;;;;;;;7.58;83.85;92064.06;4958085;28;20097;-76
2021/05/22 03:59:11;;;;;;;0.30;0.30;;;;;;;7.53;82.32;92064.13;4974666;28;20055;-75
2021/05/22 04:01:37;;;;;;;0.20;0.20;;;;;;;7.46;81.29;92071.50;4958041;28;20138;-75
2021/05/22 04:04:03;;;;;;;0.30;0.30;;;;;;;7.45;80.95;92059.50;4956495;28;20919;-76
2021/05/22 04:06:29;;;;;;;0.30;0.30;;;;;;;7.46;81.03;92055.88;4969472;28;20046;-76
2021/05/22 04:08:55;;;;;;;4.25;0.43;;;;;;;7.48;81.09;92046.72;4968679;28;20413;-76
2021/05/22 04:11:20;;;;;;;0.30;0.30;;;;;;;7.56;78.64;92031.53;4988391;28;20347;-75
2021/05/22 04:13:46;;;;;;;0.32;0.30;;;;;;;7.59;78.89;92020.53;4972183;28;20547;-76
2021/05/22 04:16:12;;;;;;;0.30;0.30;;;;;;;7.59;79.65;92010.94;4984607;28;20057;-77
2021/05/22 04:18:37;;;;;;;0.98;0.80;;;;;;;7.50;80.02;92015.19;4977821;28;20046;-75
2021/05/22 04:21:03;;;;;;;0.75;0.70;;;;;;;7.43;82.80;92012.94;4970539;28;20043;-75
2021/05/22 04:23:29;;;;;;;1.45;0.88;;;;;;;7.40;83.05;92018.69;4980124;28;20038;-76
2021/05/22 04:25:55;;;;;;;1.10;0.77;;;;;;;7.37;83.03;92026.28;4947350;28;20058;-78
2021/05/22 04:28:20;;;;;;;0.52;0.52;;;;;;;7.36;83.48;92032.53;4953131;28;20493;-76
2021/05/22 04:30:47;;;;;;;0.35;0.35;;;;;;;7.36;82.73;92033.28;4972791;28;20125;-76
2021/05/22 04:33:12;;;;;;;0.50;0.50;;;;;;;7.38;82.24;92022.63;4986770;28;20105;-76
2021/05/22 04:35:38;;;;;;;0.32;0.32;;;;;;;7.41;79.57;92025.44;4971941;28;20043;-76
2021/05/22 04:38:04;;;;;;;0.90;0.35;;;;;;;7.46;79.25;92027.22;4973052;28;20054;-77
2021/05/22 04:40:29;;;;;;;0.30;0.30;;;;;;;7.49;79.78;92029.25;4983222;28;20046;-75
2021/05/22 04:42:55;;;;;;;0.43;0.43;;;;;;;7.51;78.52;92024.56;4972523;28;20049;-75
2021/05/22 04:45:21;;;;;;;0.60;0.50;;;;;;;7.51;78.09;92024.56;4940392;28;20081;-75
2021/05/22 04:47:46;;;;;;;0.20;0.20;;;;;;;7.54;78.43;92038.84;4966797;28;20551;-72
2021/05/22 04:50:13;;;;;;;0.50;0.50;;;;;;;7.51;79.08;92032.38;4987531;28;20512;-75
2021/05/22 04:52:39;;;;;;;0.40;0.40;;;;;;;7.53;80.00;92040.69;4955468;28;20042;-75
2021/05/22 04:55:06;;;;;;;0.63;0.60;;;;;;;7.55;80.31;92041.19;4972883;28;20764;-75
2021/05/22 04:57:32;;;;;;;0.50;0.50;;;;;;;7.58;80.65;92048.44;4975243;28;20043;-75
2021/05/22 04:59:58;;;;;;;0.30;0.30;;;;;;;7.64;81.60;92051.78;4974902;28;20054;-77
2021/05/22 05:02:23;;;;;;;0.30;0.30;;;;;;;7.69;82.34;92046.50;4973326;28;20034;-74
2021/05/22 05:04:49;;;;;;;0.30;0.30;;;;;;;7.80;82.60;92054.97;4970980;28;20050;-75
2021/05/22 05:07:15;;;;;;;0.57;0.43;;;;;;;7.88;83.32;92064.75;4966047;28;20042;-76
2021/05/22 05:09:40;;;;;;;0.50;0.40;;;;;;;7.98;83.29;92059.44;4959050;28;20486;-76
2021/05/22 05:12:07;;;;;;;0.40;0.40;;;;;;;8.10;84.10;92057.19;4954525;28;20544;-75
2021/05/22 05:14:33;;;;;;;0.40;0.40;;;;;;;8.14;81.79;92058.19;4948370;28;20051;-74
2021/05/22 05:16:59;;;;;;;0.68;0.50;;;;;;;8.14;81.34;92058.19;4971983;28;20133;-76
2021/05/22 05:19:28;;;;;;;0.50;0.50;;;;;;;8.12;80.57;92067.34;4955386;28;20513;-75
2021/05/22 05:21:55;;;;;;;1.02;0.50;;;;;;;8.13;81.48;92082.72;4954368;28;20069;-75
2021/05/22 05:24:21;;;;;;;0.95;0.50;;;;;;;8.17;81.11;92087.34;4959149;28;20137;-72
2021/05/22 05:26:47;;;;;;;0.40;0.40;;;;;;;8.21;81.13;92089.13;4938879;28;20115;-74
2021/05/22 05:29:12;;;;;;;2.22;0.43;;;;;;;8.30;81.09;92094.47;4976558;28;20047;-75
2021/05/22 05:31:38;;;;;;;0.45;0.45;;;;;;;8.45;80.96;92094.31;4972326;28;20125;-76
2021/05/22 05:34:04;;;;;;;0.40;0.40;;;;;;;8.68;81.14;92110.94;4972253;28;20138;-75
2021/05/22 05:36:30;;;;;;;0.65;0.50;;;;;;;8.88;80.66;92128.16;4974156;28;20413;-76
2021/05/22 05:38:55;;;;;;;0.30;0.30;;;;;;;9.06;79.98;92123.19;4959738;28;20055;-76
2021/05/22 05:41:21;;;;;;;0.80;0.43;;;;;;;9.14;80.20;92136.38;4954644;28;20046;-75
2021/05/22 05:43:47;;;;;;;0.43;0.40;;;;;;;9.22;81.50;92131.56;4983802;28;20521;-76
2021/05/22 05:46:12;;;;;;;0.50;0.50;;;;;;;9.23;79.50;92133.91;4969466;28;20057;-75
2021/05/22 05:48:38;;;;;;;0.40;0.40;;;;;;;9.30;78.82;92159.63;4980533;28;20572;-76
2021/05/22 05:51:04;;;;;;;0.47;0.43;;;;;;;9.30;78.95;92160.41;4977516;28;20415;-76
2021/05/22 05:53:30;;;;;;;0.70;0.70;;;;;;;9.24;80.99;92156.34;4959284;28;20050;-76
2021/05/22 05:55:56;;;;;;;1.00;0.60;;;;;;;9.24;80.03;92164.16;4973036;28;20497;-76
2021/05/22 05:58:21;;;;;;;3.20;0.70;;;;;;;9.26;79.41;92179.56;4977951;28;20054;-75
2021/05/22 06:00:47;;;;;;;3.00;0.60;;;;;;;9.28;79.87;92178.22;4968631;28;20098;-75
2021/05/22 06:03:14;;;;;;;0.40;0.40;;;;;;;9.26;79.51;92179.56;4971557;28;20043;-75
2021/05/22 06:05:39;;;;;;;0.40;0.40;;;;;;;9.17;79.11;92185.41;4958290;28;20493;-76
2021/05/22 06:08:06;;;;;;;1.70;0.50;;;;;;;9.28;79.69;92185.28;4974529;28;20066;-75
2021/05/22 06:10:34;;;;;;;0.70;0.40;;;;;;;9.32;77.70;92189.66;4969490;28;20055;-76
2021/05/22 06:13:00;;;;;;;0.95;0.40;;;;;;;9.29;78.97;92195.41;4971313;28;20521;-76
2021/05/22 06:15:31;;;;;;;1.65;0.50;;;;;;;9.27;78.54;92213.22;4939757;28;20066;-76
2021/05/22 06:17:57;;;;;;;0.60;0.60;;;;;;;9.34;76.93;92212.84;4977491;28;20061;-76
2021/05/22 06:20:23;;;;;;;0.52;0.40;;;;;;;9.40;77.63;92218.78;4971381;28;20042;-76
2021/05/22 06:22:49;;;;;;;0.30;0.30;;;;;;;9.32;78.22;92215.78;4949387;28;20066;-76
2021/05/22 06:25:14;;;;;;;0.50;0.50;;;;;;;9.70;76.62;92218.28;4951420;28;20071;-76
2021/05/22 06:27:40;;;;;;;0.40;0.40;;;;;;;12.65;67.85;92221.91;4949624;28;20109;-77
2021/05/22 06:30:08;;;;;;;0.57;0.40;;;;;;;12.08;67.03;92225.22;4966404;28;20047;-75
2021/05/22 06:32:34;;;;;;;2.38;0.50;;;;;;;11.62;69.21;92222.94;4974316;28;20031;-76
2021/05/22 06:35:00;;;;;;;0.30;0.30;;;;;;;11.34;70.10;92223.00;4969286;28;20086;-76
2021/05/22 06:37:26;;;;;;;0.82;0.47;;;;;;;11.58;69.39;92221.97;4938189;28;20485;-79
2021/05/22 06:39:53;;;;;;;1.10;0.60;;;;;;;11.93;67.75;92227.44;4986945;28;20177;-77
2021/05/22 06:42:20;;;;;;;0.68;0.50;;;;;;;11.12;69.35;92225.59;4973669;28;20038;-78
2021/05/22 06:44:53;;;;;;;0.40;0.40;;;;;;;10.26;72.98;92219.16;4985417;28;20137;-77
2021/05/22 06:47:21;;;;;;;0.40;0.40;;;;;;;10.32;72.58;92220.66;4974107;28;20058;-78
2021/05/22 06:49:46;;;;;;;0.45;0.45;;;;;;;10.60;72.03;92226.69;4967221;28;20043;-77
2021/05/22 06:52:12;;;;;;;0.60;0.60;;;;;;;10.70;71.34;92228.31;4977872;28;20042;-79
2021/05/22 06:54:38;;;;;;;0.43;0.40;;;;;;;10.65;72.92;92233.66;4961297;28;20068;-79
2021/05/22 06:57:04;;;;;;;1.08;0.80;;;;;;;10.63;75.70;92223.47;4974281;28;20102;-78
2021/05/22 06:59:29;;;;;;;0.73;0.70;;;;;;;10.01;79.50;92243.94;4957212;28;20532;-77
2021/05/22 07:01:55;;;;;;;0.77;0.70;;;;;;;10.04;80.84;92240.72;4958292;28;20042;-77
2021/05/22 07:04:21;;;;;;;0.95;0.90;;;;;;;10.21;79.00;92235.72;4979341;28;20046;-78
2021/05/22 07:06:46;;;;;;;0.73;0.70;;;;;;;10.83;76.66;92224.91;4979969;28;20078;-78
2021/05/22 07:09:12;;;;;;;0.80;0.80;;;;;;;11.64;76.09;92242.53;4971990;28;20536;-76
2021/05/22 07:11:38;;;;;;;1.10;0.80;;;;;;;11.76;73.32;92238.59;4939708;28;20061;-78
2021/05/22 07:14:03;;;;;;;0.90;0.80;;;;;;;11.92;74.41;92221.44;4961087;28;20540;-78
2021/05/22 07:16:29;;;;;;;1.70;0.82;;;;;;;12.22;72.74;92219.13;4964190;28;20467;-78
2021/05/22 07:18:55;;;;;;;0.98;0.75;;;;;;;11.82;71.87;92227.69;4950587;28;20564;-78
2021/05/22 07:21:21;;;;;;;1.25;0.90;;;;;;;11.64;74.49;92226.00;4985103;28;20050;-79
2021/05/22 07:23:46;;;;;;;2.40;0.93;;;;;;;11.51;73.66;92217.16;4977895;28;20046;-79
2021/05/22 07:26:12;;;;;;;2.75;0.80;;;;;;;11.47;77.94;92231.91;4991187;28;20074;-79
2021/05/22 07:28:38;;;;;;;2.30;0.90;;;;;;;11.52;72.68;92236.25;4977416;28;20057;-79
2021/05/22 07:31:04;;;;;;;1.52;0.85;;;;;;;11.48;75.10;92237.91;4979084;28;20382;-79
2021/05/22 07:33:36;;;;;;;1.05;0.80;;;;;;;10.63;81.65;92231.31;4982785;28;20039;-78
2021/05/22 07:36:02;;;;;;;5.05;1.05;;;;;;;10.05;81.30;92237.06;4961723;28;20406;-79
2021/05/22 07:38:28;;;;;;;3.20;1.00;;;;;;;10.36;81.57;92239.19;4946728;28;20042;-78
2021/05/22 07:40:53;;;;;;;0.80;0.80;;;;;;;10.73;79.26;92240.81;4960023;28;20061;-79
2021/05/22 07:43:20;;;;;;;1.52;0.90;;;;;;;10.80;77.14;92240.41;4982045;28;20042;-78
2021/05/22 07:45:46;;;;;;;1.25;0.80;;;;;;;10.98;79.33;92236.13;4963052;28;20058;-79
2021/05/22 07:48:13;;;;;;;1.08;0.88;;;;;;;10.52;80.32;92239.66;4986906;28;20567;-79
2021/05/22 07:50:39;;;;;;;1.48;0.77;;;;;;;10.27;79.64;92249.50;4957970;28;20051;-79
2021/05/22 07:53:05;;;;;;;1.90;0.90;;;;;;;10.35;80.48;92253.31;5008668;28;20472;-79
2021/05/22 07:55:31;;;;;;;1.58;0.80;;;;;;;10.70;78.16;92240.63;4995774;28;20053;-79
2021/05/22 07:57:56;;;;;;;1.67;0.90;;;;;;;11.10;78.13;92249.50;4942345;28;20035;-79
2021/05/22 08:00:22;;;;;;;0.93;0.80;;;;;;;11.51;75.28;92248.59;4958749;28;20073;-79
2021/05/22 08:02:48;;;;;;;1.20;0.80;;;;;;;11.34;75.99;92243.22;4975937;28;20034;-80
2021/05/22 08:05:14;;;;;;;2.35;0.90;;;;;;;11.29;78.14;92235.47;4958406;28;20051;-80
2021/05/22 08:07:41;;;;;;;2.50;0.80;;;;;;;11.14;76.69;92249.66;4960882;28;20402;-77
2021/05/22 08:10:08;;;;;;;1.33;0.80;;;;;;;11.21;73.07;92242.97;4941498;28;20041;-77
2021/05/22 08:12:34;;;;;;;0.90;0.80;;;;;;;10.82;75.62;92248.75;4957753;28;20041;-78
2021/05/22 08:15:00;;;;;;;1.33;0.80;;;;;;;10.63;78.21;92252.25;4965234;28;20500;-78
2021/05/22 08:17:26;;;;;;;1.95;0.90;;;;;;;10.76;78.47;92240.22;4965096;28;20591;-78
2021/05/22 08:19:52;;;;;;;1.60;0.95;;;;;;;10.74;78.53;92239.75;4976115;28;20097;-78
2021/05/22 08:22:18;;;;;;;3.15;1.00;;;;;;;10.96;77.11;92249.50;4973405;28;20034;-78
2021/05/22 08:24:43;;;;;;;0.45;0.40;;;;;;;10.74;68.40;92242.38;4976011;28;20860;-79
2021/05/22 08:27:09;;;;;;;0.60;0.60;;;;;;;10.95;72.15;92258.44;4980494;28;20267;-78
2021/05/22 08:29:35;;;;;;;3.08;0.98;;;;;;;10.77;75.91;92262.72;4961059;28;20512;-78
2021/05/22 08:32:01;;;;;;;1.42;0.70;;;;;;;10.74;70.69;92267.75;4995010;28;20160;-78
2021/05/22 08:34:27;;;;;;;0.60;0.60;;;;;;;11.01;72.47;92265.13;4989590;28;20046;-77
2021/05/22 08:36:53;;;;;;;1.98;0.80;;;;;;;11.24;75.07;92276.44;4973903;28;20493;-78
2021/05/22 08:39:20;;;;;;;3.97;0.60;;;;;;;10.97;71.87;92261.53;4957882;28;20141;-78
2021/05/22 08:41:48;;;;;;;5.57;0.80;;;;;;;10.79;75.92;92244.88;4976661;28;20125;-78
2021/05/22 08:44:14;;;;;;;0.82;0.70;;;;;;;11.05;75.25;92241.72;4975963;28;20129;-77
2021/05/22 08:46:39;;;;;;;3.08;0.82;;;;;;;11.28;73.96;92233.91;4972349;28;20114;-77
2021/05/22 08:49:06;;;;;;;0.50;0.50;;;;;;;11.42;70.96;92232.03;4938635;29;20048;-76
2021/05/22 08:51:32;;;;;;;1.88;0.82;;;;;;;11.19;74.64;92246.94;4978893;28;20031;-76
2021/05/22 08:53:58;;;;;;;1.50;0.70;;;;;;;11.48;76.49;92248.41;4964831;28;20057;-76
2021/05/22 08:56:24;;;;;;;1.13;0.60;;;;;;;11.08;77.11;92250.84;4963655;28;20050;-77
2021/05/22 08:58:50;;;;;;;2.08;0.60;;;;;;;10.71;74.70;92258.63;4984039;28;20039;-77
2021/05/22 09:01:16;;;;;;;1.02;0.80;;;;;;;10.91;75.56;92259.31;4973275;28;20031;-75
2021/05/22 09:03:44;;;;;;;0.88;0.80;;;;;;;11.16;76.18;92260.63;4968568;28;20611;-75
2021/05/22 09:06:10;;;;;;;0.90;0.80;;;;;;;11.09;75.60;92262.88;4960253;28;20409;-75
2021/05/22 09:08:36;;;;;;;0.98;0.75;;;;;;;11.20;76.51;92258.97;4951145;28;20043;-76
2021/05/22 09:11:04;;;;;;;1.08;0.85;;;;;;;11.45;77.66;92255.03;4979336;28;20046;-75
2021/05/22 09:13:31;;;;;;;0.95;0.80;;;;;;;11.20;76.55;92257.13;4943465;28;20057;-75
2021/05/22 09:16:02;;;;;;;1.25;0.70;;;;;;;11.36;71.96;92265.44;4956784;28;20037;-76
2021/05/22 09:18:39;;;;;;;1.10;0.77;;;;;;;11.13;72.59;92271.72;4985507;28;20039;-77
2021/05/22 09:21:07;;;;;;;0.82;0.65;;;;;;;10.96;69.41;92275.69;4976482;28;20051;-79
2021/05/22 09:23:39;;;;;;;1.08;0.60;;;;;;;11.38;69.06;92294.75;4961029;28;20078;-79
2021/05/22 09:26:13;;;;;;;0.50;0.50;;;;;;;11.70;71.95;92290.38;4971780;28;20516;-78
2021/05/22 09:28:49;;;;;;;0.77;0.68;;;;;;;11.94;70.63;92295.34;4968143;28;20046;-79
2021/05/22 09:31:23;;;;;;;2.08;0.80;;;;;;;11.83;70.03;92289.53;4971345;28;20047;-79
2021/05/22 09:33:58;;;;;;;1.05;0.70;;;;;;;11.72;74.17;92295.31;4989752;28;20448;-78
2021/05/22 09:36:23;;;;;;;1.35;0.70;;;;;;;11.23;73.80;92303.69;4962308;28;20070;-75
2021/05/22 09:38:55;;;;;;;2.90;0.90;;;;;;;10.90;73.03;92310.91;4997261;28;20038;-77
2021/05/22 09:41:35;;;;;;;1.02;0.90;;;;;;;11.33;72.07;92307.19;4955670;28;20451;-78
2021/05/22 09:44:08;;;;;;;1.45;0.70;;;;;;;11.75;69.95;92300.72;4973991;28;20047;-78
2021/05/22 09:46:54;;;;;;;2.00;0.90;;;;;;;11.72;70.07;92298.72;4953461;28;20059;-77
2021/05/22 09:49:33;;;;;;;1.63;0.77;;;;;;;12.20;70.96;92305.22;4957521;28;20046;-81
2021/05/22 09:52:00;;;;;;;0.63;0.50;;;;;;;12.25;70.27;92305.91;4972118;28;20513;-77
2021/05/22 09:54:51;;;;;;;0.50;0.50;;;;;;;12.73;67.24;92307.06;4978713;28;20390;-79
2021/05/22 09:57:21;;;;;;;0.60;0.60;;;;;;;13.46;60.37;92304.00;4970447;28;20113;-78
2021/05/22 10:00:05;;;;;;;0.98;0.32;;;;;;;13.90;56.36;92307.44;4976179;28;20039;-78
2021/05/22 10:02:40;;;;;;;0.52;0.50;;;;;;;14.30;60.71;92292.22;4975210;28;20046;-80
2021/05/22 10:05:19;;;;;;;0.73;0.73;;;;;;;13.93;61.01;92291.78;4977177;28;20085;-78
2021/05/22 10:07:47;;;;;;;2.38;0.88;;;;;;;13.47;67.94;92298.44;4978342;28;20050;-78
2021/05/22 10:10:14;;;;;;;1.27;0.60;;;;;;;12.82;64.59;92307.09;4957321;28;20035;-79
2021/05/22 10:12:43;;;;;;;1.05;0.60;;;;;;;12.83;65.18;92316.50;4976184;28;20046;-78
2021/05/22 10:15:10;;;;;;;1.30;0.60;;;;;;;12.52;68.13;92317.31;4955727;28;20058;-77
2021/05/22 10:17:36;;;;;;;0.75;0.45;;;;;;;11.88;66.34;92310.44;4957571;28;20385;-77
2021/05/22 10:20:03;;;;;;;0.77;0.60;;;;;;;11.70;67.78;92313.97;4988456;28;20378;-76
2021/05/22 10:22:29;;;;;;;4.55;0.70;;;;;;;12.15;66.68;92311.38;4988205;28;20051;-77
2021/05/22 10:24:57;;;;;;;2.95;0.70;;;;;;;12.27;68.48;92306.38;4952122;29;20058;-77
2021/05/22 10:27:23;;;;;;;2.22;1.00;;;;;;;11.82;68.40;92310.81;4936475;29;20051;-75
2021/05/22 10:29:49;;;;;;;1.95;1.10;;;;;;;12.14;70.48;92312.47;4965190;28;20074;-76
2021/05/22 10:32:27;;;;;;;2.85;1.17;;;;;;;11.85;70.14;92305.00;4976801;28;20400;-74
2021/05/22 10:34:54;;;;;;;1.60;1.00;;;;;;;12.21;68.45;92307.56;4974674;28;20042;-72
2021/05/22 10:37:38;;;;;;;2.45;1.20;;;;;;;12.16;70.54;92315.56;4958674;28;20122;-76
2021/05/22 10:40:05;;;;;;;2.58;1.10;;;;;;;12.42;69.08;92325.44;4957652;28;20066;-77
2021/05/22 10:42:31;;;;;;;3.00;1.20;;;;;;;11.93;72.71;92327.91;4970670;28;20423;-76
2021/05/22 10:47:44;;;;;;;2.22;1.20;;;;;;;12.16;71.13;92323.44;4976368;28;20105;-77
2021/05/22 10:50:10;;;;;;;1.58;1.10;;;;;;;12.06;72.43;92315.78;4960911;28;20106;-76
2021/05/22 10:52:37;;;;;;;1.02;0.90;;;;;;;12.34;69.80;92315.66;4970197;28;20050;-77
2021/05/22 10:55:11;;;;;;;2.17;1.13;;;;;;;12.14;70.51;92312.47;4965102;28;20074;-76
2021/05/22 10:57:46;;;;;;;1.77;1.17;;;;;;;11.83;70.81;92313.16;4966285;28;20221;-76
2021/05/22 11:00:21;;;;;;;4.53;1.42;;;;;;;12.09;71.15;92320.44;4976070;28;20505;-77
2021/05/22 11:03:08;;;;;;;4.88;1.40;;;;;;;12.16;70.20;92320.81;4958891;28;20413;-77
2021/05/22 11:05:43;;;;;;;6.90;1.45;;;;;;;11.63;73.88;92318.84;4946097;28;20041;-76
2021/05/22 11:08:09;;;;;;;5.05;1.70;;;;;;;11.65;74.10;92319.34;4958742;28;20043;-76
2021/05/22 11:10:43;;;;;;;4.72;1.73;;;;;;;12.13;71.60;92326.66;4973235;28;20387;-75
2021/05/22 11:13:28;;;;;;;6.60;2.22;;;;;;;12.39;72.72;92323.41;4989259;28;20094;-75
2021/05/22 11:16:00;;;;;;;4.68;1.70;;;;;;;12.21;71.28;92322.53;4980326;28;20110;-74
2021/05/22 11:18:32;;;;;;;4.40;1.70;;;;;;;11.98;73.43;92316.50;4961784;28;20051;-76
2021/05/22 11:21:25;;;;;;;4.03;2.10;;;;;;;12.01;72.37;92314.06;4989571;28;20049;-75
2021/05/22 11:24:08;;;;;;;4.97;1.90;;;;;;;11.87;72.53;92318.59;4971042;28;20057;-77
2021/05/22 11:26:48;;;;;;;4.63;2.00;;;;;;;11.71;73.86;92318.16;4959275;28;20051;-77
2021/05/22 11:29:14;;;;;;;5.90;2.20;;;;;;;11.85;72.48;92329.38;4962676;28;20125;-77
2021/05/22 11:31:40;;;;;;;7.68;2.17;;;;;;;11.81;73.91;92320.53;4959460;28;20534;-77
2021/05/22 11:34:23;;;;;;;5.25;1.83;;;;;;;12.21;74.57;92323.31;4976720;28;20043;-78
2021/05/22 11:37:11;;;;;;;3.85;1.80;;;;;;;12.29;73.37;92332.31;4965345;28;20043;-77
2021/05/22 11:39:46;;;;;;;4.18;1.90;;;;;;;11.84;74.22;92324.41;4977260;28;20528;-77